createdAt,value
2023-01-13T00:03:31.788Z,64.43
2023-01-13T00:08:34.542Z,64.53
2023-01-13T00:13:35.570Z,64.74
2023-01-13T00:18:37.399Z,64.92
2023-01-13T00:23:40.603Z,64.91
2023-01-13T00:28:41.379Z,65.78
2023-01-13T00:33:42.424Z,65.41
2023-01-13T00:38:45.099Z,67.10
2023-01-13T00:43:46.303Z,68.13
2023-01-13T00:48:48.048Z,70.27
2023-01-13T00:53:52.365Z,71.83
2023-01-13T00:58:53.589Z,72.33
2023-01-13T01:03:55.711Z,73.32
2023-01-13T01:08:58.368Z,73.44
2023-01-13T01:14:01.574Z,73.02
2023-01-13T01:19:03.628Z,72.91
2023-01-13T01:24:06.394Z,73.35
2023-01-13T01:29:07.207Z,74.29
2023-01-13T01:34:08.002Z,73.20
2023-01-13T01:39:11.668Z,72.75
2023-01-13T01:44:45.819Z,72.30
2023-01-13T01:49:47.405Z,70.77
2023-01-13T01:54:55.442Z,70.66
2023-01-13T01:59:57.682Z,70.14
2023-01-13T02:04:59.179Z,68.42
2023-01-13T02:10:07.346Z,68.06
2023-01-13T02:15:11.114Z,68.54
2023-01-13T02:20:34.996Z,67.56
2023-01-13T02:25:49.821Z,67.30
2023-01-13T02:31:15.207Z,66.97
2023-01-13T02:36:24.205Z,66.50
2023-01-13T02:41:48.006Z,66.92
2023-01-13T02:46:58.125Z,65.90
2023-01-13T02:52:05.043Z,66.60
2023-01-13T02:57:08.139Z,65.47
2023-01-13T03:02:15.171Z,65.89
2023-01-13T03:07:40.591Z,66.10
2023-01-13T03:12:51.294Z,65.75
2023-01-13T03:17:59.047Z,65.42
2023-01-13T03:23:07.631Z,65.95
2023-01-13T03:28:13.111Z,66.11
2023-01-13T03:33:18.558Z,65.94
2023-01-13T03:38:22.846Z,65.75
2023-01-13T03:43:47.719Z,65.71
2023-01-13T03:48:55.633Z,64.55
2023-01-13T03:53:59.225Z,64.76
2023-01-13T03:59:05.032Z,63.89
2023-01-13T04:04:10.580Z,64.42
2023-01-13T04:09:17.661Z,64.83
2023-01-13T04:14:21.658Z,64.37
2023-01-13T04:19:23.693Z,64.51
2023-01-13T04:24:24.386Z,64.66
2023-01-13T04:29:25.050Z,65.03
2023-01-13T04:34:28.484Z,65.08
2023-01-13T04:39:29.276Z,64.01
2023-01-13T04:44:30.524Z,65.00
2023-01-13T04:49:33.238Z,64.16
2023-01-13T04:54:33.923Z,64.83
2023-01-13T04:59:34.773Z,64.29
2023-01-13T05:04:37.220Z,64.56
2023-01-13T05:09:37.905Z,66.36
2023-01-13T05:14:56.137Z,66.60
2023-01-13T05:19:58.175Z,64.22
2023-01-13T05:25:16.272Z,64.97
2023-01-13T05:30:18.277Z,64.43
2023-01-13T05:35:20.522Z,64.58
2023-01-13T05:40:38.728Z,64.83
2023-01-13T05:45:39.361Z,63.50
2023-01-13T05:50:41.340Z,64.62
2023-01-13T05:55:42.783Z,64.59
2023-01-13T06:00:43.532Z,64.25
2023-01-13T06:05:45.522Z,64.06
2023-01-13T06:10:46.177Z,64.82
2023-01-13T06:15:46.957Z,64.51
2023-01-13T06:20:49.564Z,64.13
2023-01-13T06:25:57.483Z,65.39
2023-01-13T06:31:01.704Z,64.77
2023-01-13T06:36:08.557Z,65.18
2023-01-13T06:41:09.665Z,65.23
2023-01-13T06:46:10.477Z,65.88
2023-01-13T06:51:13.869Z,65.98
2023-01-13T06:56:14.530Z,64.73
2023-01-13T07:01:15.373Z,65.58
2023-01-13T07:06:17.432Z,65.29
2023-01-13T07:11:18.205Z,65.28
2023-01-13T07:16:18.889Z,63.96
2023-01-13T07:21:21.222Z,64.07
2023-01-13T07:26:21.957Z,64.93
2023-01-13T07:31:23.154Z,64.02
2023-01-13T07:36:25.212Z,64.39
2023-01-13T07:41:43.446Z,63.83
2023-01-13T07:46:44.101Z,64.11
2023-01-13T07:51:46.087Z,63.84
2023-01-13T07:56:46.750Z,63.89
2023-01-13T08:01:47.583Z,63.33
2023-01-13T08:06:49.709Z,62.92
2023-01-13T08:12:10.378Z,62.44
2023-01-13T08:17:11.558Z,63.21
2023-01-13T08:22:13.554Z,61.98
2023-01-13T08:27:14.272Z,62.33
2023-01-13T08:32:14.915Z,62.58
2023-01-13T08:37:16.948Z,62.37
2023-01-13T08:42:17.647Z,62.22
2023-01-13T08:47:18.343Z,61.92
2023-01-13T08:52:20.514Z,61.50
2023-01-13T08:57:21.328Z,62.28
2023-01-13T09:02:26.879Z,61.80
2023-01-13T09:07:28.920Z,61.75
2023-01-13T09:12:47.069Z,60.63
2023-01-13T09:17:47.983Z,60.81
2023-01-13T09:22:50.050Z,59.87
2023-01-13T09:27:50.710Z,59.67
2023-01-13T09:33:11.383Z,64.70
2023-01-13T09:38:14.557Z,71.57
2023-01-13T09:43:38.066Z,74.64
2023-01-13T09:48:52.091Z,75.69
2023-01-13T09:53:59.880Z,76.92
2023-01-13T09:59:00.571Z,77.32
2023-01-13T10:04:09.200Z,77.22
2023-01-13T10:09:17.743Z,77.55
2023-01-13T10:14:21.464Z,77.07
2023-01-13T10:19:27.613Z,76.26
2023-01-13T10:24:50.712Z,76.24
2023-01-13T10:29:51.446Z,76.65
2023-01-13T10:34:56.881Z,75.52
2023-01-13T10:40:02.777Z,76.03
2023-01-13T10:45:03.903Z,74.55
2023-01-13T10:50:22.344Z,75.64
2023-01-13T10:55:28.759Z,73.94
2023-01-13T11:00:32.222Z,73.73
2023-01-13T11:05:32.901Z,73.74
2023-01-13T11:10:35.241Z,72.03
2023-01-13T11:15:42.035Z,71.37
2023-01-13T11:20:45.116Z,72.75
2023-01-13T11:25:53.173Z,72.62
2023-01-13T11:30:57.785Z,72.85
2023-01-13T11:36:07.549Z,73.53
2023-01-13T11:41:16.545Z,71.81
2023-01-13T11:46:17.278Z,69.85
2023-01-13T11:51:31.865Z,69.41
2023-01-13T11:56:53.661Z,69.68
2023-01-13T12:02:22.287Z,68.97
2023-01-13T12:07:37.227Z,69.45
2023-01-13T12:12:52.118Z,68.77
2023-01-13T12:18:06.587Z,66.78
2023-01-13T12:23:14.314Z,65.13
2023-01-13T12:28:21.103Z,63.34
2023-01-13T12:33:32.776Z,63.25
2023-01-13T12:38:37.289Z,62.70
2023-01-13T12:44:04.068Z,61.78
2023-01-13T12:49:17.915Z,62.03
2023-01-13T12:55:10.880Z,62.17
2023-01-13T13:00:17.834Z,63.04
2023-01-13T13:05:40.611Z,62.12
2023-01-13T13:10:46.203Z,61.29
2023-01-13T13:15:49.315Z,61.91
2023-01-13T13:20:59.146Z,62.51
2023-01-13T13:26:04.732Z,62.34
2023-01-13T13:31:20.113Z,61.92
2023-01-13T13:36:45.683Z,62.76
2023-01-13T13:42:06.692Z,63.21
2023-01-13T13:47:15.390Z,63.40
2023-01-13T13:52:21.742Z,63.58
2023-01-13T13:58:55.507Z,62.69
2023-01-13T14:04:11.529Z,62.31
2023-01-13T14:09:19.574Z,62.63
2023-01-13T14:14:21.891Z,62.67
2023-01-13T14:19:32.707Z,61.03
2023-01-13T14:24:33.874Z,61.78
2023-01-13T14:29:36.161Z,62.47
2023-01-13T14:34:37.793Z,62.15
2023-01-13T14:39:41.552Z,61.82
2023-01-13T14:44:46.874Z,61.99
2023-01-13T14:49:58.773Z,61.37
2023-01-13T14:55:22.500Z,60.66
2023-01-13T15:00:26.861Z,60.09
2023-01-13T15:05:49.548Z,61.05
2023-01-13T15:10:52.708Z,60.46
2023-01-13T15:15:56.774Z,60.71
2023-01-13T15:20:57.510Z,63.32
2023-01-13T15:26:01.245Z,65.43
2023-01-13T15:31:03.925Z,65.56
2023-01-13T15:36:07.693Z,67.85
2023-01-13T15:41:10.462Z,69.64
2023-01-13T15:46:33.405Z,70.81
2023-01-13T15:51:34.214Z,72.40
2023-01-13T15:56:37.261Z,73.50
2023-01-13T16:01:39.442Z,73.64
2023-01-13T16:06:40.250Z,74.68
2023-01-13T16:11:40.967Z,74.46
2023-01-13T16:16:43.022Z,75.31
2023-01-13T16:21:45.306Z,76.00
2023-01-13T16:26:46.003Z,75.16
2023-01-13T16:31:48.037Z,76.57
2023-01-13T16:36:48.740Z,80.18
2023-01-13T16:41:49.514Z,74.78
2023-01-13T16:46:51.536Z,73.76
2023-01-13T16:51:52.247Z,74.81
2023-01-13T16:56:52.941Z,74.57
2023-01-13T17:01:55.159Z,75.29
2023-01-13T17:07:00.232Z,75.15
2023-01-13T17:12:01.408Z,75.25
2023-01-13T17:17:03.480Z,76.32
2023-01-13T17:22:04.168Z,75.65
2023-01-13T17:27:05.005Z,76.50
2023-01-13T17:32:07.197Z,71.92
2023-01-13T17:37:07.894Z,68.39
2023-01-13T17:42:08.589Z,67.85
2023-01-13T17:47:11.018Z,67.45
2023-01-13T17:52:11.727Z,65.82
2023-01-13T17:57:12.426Z,64.45
2023-01-13T18:02:15.038Z,62.85
2023-01-13T18:07:15.810Z,61.90
2023-01-13T18:12:16.591Z,61.21
2023-01-13T18:17:19.604Z,61.21
2023-01-13T18:22:37.980Z,62.07
2023-01-13T18:27:41.338Z,65.97
2023-01-13T18:32:43.389Z,65.18
2023-01-13T18:37:44.373Z,64.53
2023-01-13T18:42:55.231Z,64.66
2023-01-13T18:47:59.533Z,63.49
2023-01-13T18:53:00.281Z,63.31
2023-01-13T18:58:01.054Z,62.77
2023-01-13T19:08:07.176Z,62.14
2023-01-13T19:13:07.891Z,61.41
2023-01-13T19:18:14.275Z,61.31
2023-01-13T19:23:14.923Z,61.01
2023-01-13T19:28:15.639Z,61.47
2023-01-13T19:33:17.679Z,61.24
2023-01-13T19:38:18.386Z,60.82
2023-01-13T19:43:36.826Z,60.77
2023-01-13T19:48:39.435Z,61.01
2023-01-13T19:53:40.110Z,61.63
2023-01-13T19:58:42.012Z,61.89
2023-01-13T20:03:45.936Z,63.00
2023-01-13T20:08:48.078Z,63.24
2023-01-13T20:13:49.074Z,62.51
2023-01-13T20:18:51.792Z,62.76
2023-01-13T20:23:53.956Z,63.34
2023-01-13T20:28:54.640Z,63.63
2023-01-13T20:33:56.662Z,64.25
2023-01-13T20:38:59.094Z,64.11
2023-01-13T20:43:59.788Z,64.03
2023-01-13T20:49:01.868Z,64.18
2023-01-13T20:54:02.572Z,64.30
2023-01-13T20:59:03.328Z,64.57
2023-01-13T21:04:06.952Z,64.42
2023-01-13T21:09:07.797Z,64.31
2023-01-13T21:14:32.715Z,64.46
2023-01-13T21:19:35.060Z,64.71
2023-01-13T21:24:35.722Z,64.28
2023-01-13T21:29:36.404Z,65.36
2023-01-13T21:34:38.437Z,64.92
2023-01-13T21:39:39.185Z,64.63
2023-01-13T21:44:57.484Z,65.41
2023-01-13T21:49:59.562Z,65.41
2023-01-13T21:55:20.400Z,65.09
2023-01-13T22:00:23.387Z,64.93
2023-01-13T22:05:26.529Z,65.04
2023-01-13T22:10:29.929Z,65.22
2023-01-13T22:15:31.700Z,66.13
2023-01-13T22:20:33.786Z,65.70
2023-01-13T22:25:34.469Z,65.80
2023-01-13T22:30:35.974Z,67.05
2023-01-13T22:35:38.485Z,66.81
2023-01-13T22:40:39.147Z,67.20
2023-01-13T22:45:39.892Z,66.90
2023-01-13T22:50:42.065Z,67.37
2023-01-13T22:55:44.399Z,67.24
2023-01-13T23:00:46.793Z,66.70
2023-01-13T23:05:48.934Z,67.12
2023-01-13T23:10:49.636Z,66.55
2023-01-13T23:15:50.704Z,66.47
2023-01-13T23:20:52.846Z,66.93
2023-01-13T23:25:55.408Z,67.51
2023-01-13T23:30:56.527Z,70.40
2023-01-13T23:36:00.286Z,71.14
2023-01-13T23:41:01.289Z,71.15
2023-01-13T23:46:03.281Z,70.40
2023-01-13T23:51:07.484Z,69.63
2023-01-13T23:56:11.843Z,69.56
